sensor_id;sensor_type;location;lat;lon;timestamp;P1;durP1;ratioP1;P2;durP2;ratioP2
8139;SDS011;4111;50.972;7.072;2023-04-12T00:00:45;4.83;;;1.83;;
8139;SDS011;4111;50.972;7.072;2023-04-12T00:03:13;8.77;;;2.00;;
8139;SDS011;4111;50.972;7.072;2023-04-12T00:05:47;6.77;;;2.30;;
8139;SDS011;4111;50.972;7.072;2023-04-12T00:08:14;7.20;;;2.30;;
8139;SDS011;4111;50.972;7.072;2023-04-12T00:10:41;5.70;;;2.03;;
8139;SDS011;4111;50.972;7.072;2023-04-12T00:13:08;11.47;;;2.13;;
8139;SDS011;4111;50.972;7.072;2023-04-12T00:15:34;7.93;;;2.00;;
8139;SDS011;4111;50.972;7.072;2023-04-12T00:18:01;6.87;;;2.03;;
8139;SDS011;4111;50.972;7.072;2023-04-12T00:20:27;3.90;;;1.97;;
8139;SDS011;4111;50.972;7.072;2023-04-12T00:22:54;5.57;;;2.17;;
8139;SDS011;4111;50.972;7.072;2023-04-12T00:25:22;3.47;;;1.87;;
8139;SDS011;4111;50.972;7.072;2023-04-12T00:27:49;7.80;;;2.07;;
8139;SDS011;4111;50.972;7.072;2023-04-12T00:30:15;7.80;;;2.13;;
8139;SDS011;4111;50.972;7.072;2023-04-12T00:32:42;6.33;;;2.20;;
8139;SDS011;4111;50.972;7.072;2023-04-12T00:35:09;7.73;;;2.30;;
8139;SDS011;4111;50.972;7.072;2023-04-12T00:37:35;4.23;;;2.17;;
8139;SDS011;4111;50.972;7.072;2023-04-12T00:40:03;3.33;;;1.70;;
8139;SDS011;4111;50.972;7.072;2023-04-12T00:42:32;4.03;;;1.87;;
8139;SDS011;4111;50.972;7.072;2023-04-12T00:45:00;5.93;;;1.97;;
8139;SDS011;4111;50.972;7.072;2023-04-12T00:47:26;10.10;;;2.50;;
8139;SDS011;4111;50.972;7.072;2023-04-12T00:49:54;9.43;;;2.33;;
8139;SDS011;4111;50.972;7.072;2023-04-12T00:52:21;3.77;;;1.93;;
8139;SDS011;4111;50.972;7.072;2023-04-12T00:54:48;6.77;;;2.37;;
8139;SDS011;4111;50.972;7.072;2023-04-12T00:57:16;6.40;;;2.40;;
8139;SDS011;4111;50.972;7.072;2023-04-12T00:59:43;4.07;;;2.20;;
8139;SDS011;4111;50.972;7.072;2023-04-12T01:02:09;8.77;;;2.80;;
8139;SDS011;4111;50.972;7.072;2023-04-12T01:04:36;7.17;;;2.10;;
8139;SDS011;4111;50.972;7.072;2023-04-12T01:10:08;5.83;;;2.57;;
8139;SDS011;4111;50.972;7.072;2023-04-12T01:13:00;5.83;;;2.30;;
8139;SDS011;4111;50.972;7.072;2023-04-12T01:15:55;8.17;;;1.93;;
8139;SDS011;4111;50.972;7.072;2023-04-12T01:18:27;5.43;;;2.07;;
8139;SDS011;4111;50.972;7.072;2023-04-12T01:21:00;5.20;;;1.87;;
8139;SDS011;4111;50.972;7.072;2023-04-12T01:26:26;5.07;;;2.70;;
8139;SDS011;4111;50.972;7.072;2023-04-12T01:28:59;5.00;;;2.03;;
8139;SDS011;4111;50.972;7.072;2023-04-12T01:31:27;9.27;;;2.33;;
8139;SDS011;4111;50.972;7.072;2023-04-12T01:33:56;4.10;;;1.90;;
8139;SDS011;4111;50.972;7.072;2023-04-12T01:36:25;6.97;;;2.70;;
8139;SDS011;4111;50.972;7.072;2023-04-12T01:38:53;7.27;;;2.07;;
8139;SDS011;4111;50.972;7.072;2023-04-12T01:41:20;6.83;;;2.20;;
8139;SDS011;4111;50.972;7.072;2023-04-12T01:43:46;4.13;;;2.07;;
8139;SDS011;4111;50.972;7.072;2023-04-12T01:46:17;4.67;;;2.00;;
8139;SDS011;4111;50.972;7.072;2023-04-12T01:48:50;4.73;;;2.20;;
8139;SDS011;4111;50.972;7.072;2023-04-12T01:54:13;6.77;;;2.00;;
8139;SDS011;4111;50.972;7.072;2023-04-12T01:56:45;8.03;;;1.97;;
8139;SDS011;4111;50.972;7.072;2023-04-12T01:59:15;6.07;;;2.10;;
8139;SDS011;4111;50.972;7.072;2023-04-12T02:01:43;6.90;;;2.07;;
8139;SDS011;4111;50.972;7.072;2023-04-12T02:04:12;5.63;;;2.00;;
8139;SDS011;4111;50.972;7.072;2023-04-12T02:06:41;5.67;;;2.00;;
8139;SDS011;4111;50.972;7.072;2023-04-12T02:09:08;7.37;;;2.10;;
8139;SDS011;4111;50.972;7.072;2023-04-12T02:11:35;4.57;;;2.00;;
8139;SDS011;4111;50.972;7.072;2023-04-12T02:14:02;5.17;;;2.13;;
8139;SDS011;4111;50.972;7.072;2023-04-12T02:16:29;3.07;;;1.53;;
8139;SDS011;4111;50.972;7.072;2023-04-12T02:18:57;7.67;;;2.17;;
8139;SDS011;4111;50.972;7.072;2023-04-12T02:21:24;6.80;;;1.97;;
8139;SDS011;4111;50.972;7.072;2023-04-12T02:23:52;7.53;;;2.13;;
8139;SDS011;4111;50.972;7.072;2023-04-12T02:26:19;6.87;;;1.73;;
8139;SDS011;4111;50.972;7.072;2023-04-12T02:28:45;5.03;;;1.90;;
8139;SDS011;4111;50.972;7.072;2023-04-12T02:31:12;5.90;;;2.03;;
8139;SDS011;4111;50.972;7.072;2023-04-12T02:33:40;9.13;;;2.30;;
8139;SDS011;4111;50.972;7.072;2023-04-12T02:36:08;5.17;;;2.07;;
8139;SDS011;4111;50.972;7.072;2023-04-12T02:38:36;5.93;;;1.90;;
8139;SDS011;4111;50.972;7.072;2023-04-12T02:41:02;2.77;;;1.87;;
8139;SDS011;4111;50.972;7.072;2023-04-12T02:43:29;4.07;;;2.10;;
8139;SDS011;4111;50.972;7.072;2023-04-12T02:45:55;4.23;;;1.80;;
8139;SDS011;4111;50.972;7.072;2023-04-12T02:48:22;5.83;;;1.77;;
8139;SDS011;4111;50.972;7.072;2023-04-12T02:50:48;4.40;;;1.83;;
8139;SDS011;4111;50.972;7.072;2023-04-12T02:53:15;4.87;;;1.60;;
8139;SDS011;4111;50.972;7.072;2023-04-12T02:55:42;4.33;;;1.87;;
8139;SDS011;4111;50.972;7.072;2023-04-12T02:58:08;4.07;;;1.77;;
8139;SDS011;4111;50.972;7.072;2023-04-12T03:00:34;6.40;;;1.83;;
8139;SDS011;4111;50.972;7.072;2023-04-12T03:03:01;4.37;;;2.13;;
8139;SDS011;4111;50.972;7.072;2023-04-12T03:05:28;7.33;;;1.97;;
8139;SDS011;4111;50.972;7.072;2023-04-12T03:07:55;2.50;;;1.60;;
8139;SDS011;4111;50.972;7.072;2023-04-12T03:10:21;3.73;;;1.60;;
8139;SDS011;4111;50.972;7.072;2023-04-12T03:12:48;5.80;;;2.17;;
8139;SDS011;4111;50.972;7.072;2023-04-12T03:15:14;5.87;;;1.80;;
8139;SDS011;4111;50.972;7.072;2023-04-12T03:17:42;8.63;;;2.27;;
8139;SDS011;4111;50.972;7.072;2023-04-12T03:20:10;6.63;;;2.00;;
8139;SDS011;4111;50.972;7.072;2023-04-12T03:22:36;5.13;;;2.20;;
8139;SDS011;4111;50.972;7.072;2023-04-12T03:25:03;3.60;;;1.63;;
8139;SDS011;4111;50.972;7.072;2023-04-12T03:27:30;4.93;;;1.97;;
8139;SDS011;4111;50.972;7.072;2023-04-12T03:29:57;4.30;;;1.40;;
8139;SDS011;4111;50.972;7.072;2023-04-12T03:32:23;8.87;;;1.77;;
8139;SDS011;4111;50.972;7.072;2023-04-12T03:34:50;7.33;;;2.03;;
8139;SDS011;4111;50.972;7.072;2023-04-12T03:37:17;4.50;;;1.93;;
8139;SDS011;4111;50.972;7.072;2023-04-12T03:39:44;3.80;;;1.90;;
8139;SDS011;4111;50.972;7.072;2023-04-12T03:42:13;5.60;;;2.13;;
8139;SDS011;4111;50.972;7.072;2023-04-12T03:44:57;4.00;;;1.77;;
8139;SDS011;4111;50.972;7.072;2023-04-12T03:47:23;7.03;;;2.10;;
8139;SDS011;4111;50.972;7.072;2023-04-12T03:49:50;3.27;;;1.40;;
8139;SDS011;4111;50.972;7.072;2023-04-12T03:52:35;4.40;;;2.00;;
8139;SDS011;4111;50.972;7.072;2023-04-12T03:55:01;6.33;;;2.27;;
8139;SDS011;4111;50.972;7.072;2023-04-12T03:57:28;3.80;;;1.63;;
8139;SDS011;4111;50.972;7.072;2023-04-12T03:59:55;5.17;;;2.27;;
8139;SDS011;4111;50.972;7.072;2023-04-12T04:02:21;4.23;;;2.13;;
8139;SDS011;4111;50.972;7.072;2023-04-12T04:04:48;4.90;;;2.10;;
8139;SDS011;4111;50.972;7.072;2023-04-12T04:07:14;3.10;;;1.83;;
8139;SDS011;4111;50.972;7.072;2023-04-12T04:09:41;5.93;;;2.30;;
8139;SDS011;4111;50.972;7.072;2023-04-12T04:12:07;4.77;;;1.77;;
8139;SDS011;4111;50.972;7.072;2023-04-12T04:14:34;4.77;;;2.20;;
8139;SDS011;4111;50.972;7.072;2023-04-12T04:17:02;5.20;;;1.70;;
8139;SDS011;4111;50.972;7.072;2023-04-12T04:19:28;4.50;;;2.03;;
8139;SDS011;4111;50.972;7.072;2023-04-12T04:21:54;5.27;;;1.90;;
8139;SDS011;4111;50.972;7.072;2023-04-12T04:24:22;2.23;;;1.83;;
8139;SDS011;4111;50.972;7.072;2023-04-12T04:26:50;3.70;;;1.93;;
8139;SDS011;4111;50.972;7.072;2023-04-12T04:29:19;4.47;;;1.90;;
8139;SDS011;4111;50.972;7.072;2023-04-12T04:31:46;3.93;;;1.70;;
8139;SDS011;4111;50.972;7.072;2023-04-12T04:34:12;5.13;;;2.07;;
8139;SDS011;4111;50.972;7.072;2023-04-12T04:36:39;2.50;;;1.80;;
8139;SDS011;4111;50.972;7.072;2023-04-12T04:39:07;5.73;;;2.73;;
8139;SDS011;4111;50.972;7.072;2023-04-12T04:41:34;6.30;;;1.83;;
8139;SDS011;4111;50.972;7.072;2023-04-12T04:44:05;4.70;;;1.87;;
8139;SDS011;4111;50.972;7.072;2023-04-12T04:46:35;2.63;;;2.00;;
8139;SDS011;4111;50.972;7.072;2023-04-12T04:49:03;2.80;;;1.80;;
8139;SDS011;4111;50.972;7.072;2023-04-12T04:51:30;1.60;;;1.50;;
8139;SDS011;4111;50.972;7.072;2023-04-12T04:53:57;4.43;;;1.70;;
8139;SDS011;4111;50.972;7.072;2023-04-12T04:56:23;2.67;;;1.70;;
8139;SDS011;4111;50.972;7.072;2023-04-12T04:58:50;3.17;;;1.90;;
8139;SDS011;4111;50.972;7.072;2023-04-12T05:01:16;5.13;;;1.63;;
8139;SDS011;4111;50.972;7.072;2023-04-12T05:03:43;5.13;;;2.10;;
8139;SDS011;4111;50.972;7.072;2023-04-12T05:06:15;3.50;;;2.00;;
8139;SDS011;4111;50.972;7.072;2023-04-12T05:08:42;3.13;;;1.83;;
8139;SDS011;4111;50.972;7.072;2023-04-12T05:11:09;4.20;;;1.87;;
8139;SDS011;4111;50.972;7.072;2023-04-12T05:13:36;3.47;;;2.00;;
8139;SDS011;4111;50.972;7.072;2023-04-12T05:16:06;5.20;;;1.87;;
8139;SDS011;4111;50.972;7.072;2023-04-12T05:18:33;4.37;;;2.17;;
8139;SDS011;4111;50.972;7.072;2023-04-12T05:21:03;3.67;;;1.70;;
8139;SDS011;4111;50.972;7.072;2023-04-12T05:23:40;2.27;;;1.90;;
8139;SDS011;4111;50.972;7.072;2023-04-12T05:26:08;3.43;;;2.03;;
8139;SDS011;4111;50.972;7.072;2023-04-12T05:28:34;4.70;;;2.03;;
8139;SDS011;4111;50.972;7.072;2023-04-12T05:31:07;4.80;;;2.20;;
8139;SDS011;4111;50.972;7.072;2023-04-12T05:33:34;4.40;;;2.40;;
8139;SDS011;4111;50.972;7.072;2023-04-12T05:36:02;6.67;;;2.70;;
8139;SDS011;4111;50.972;7.072;2023-04-12T05:38:29;3.70;;;2.00;;
8139;SDS011;4111;50.972;7.072;2023-04-12T05:40:56;4.40;;;2.20;;
8139;SDS011;4111;50.972;7.072;2023-04-12T05:43:22;3.90;;;2.00;;
8139;SDS011;4111;50.972;7.072;2023-04-12T05:45:49;3.60;;;2.30;;
8139;SDS011;4111;50.972;7.072;2023-04-12T05:48:16;2.67;;;1.70;;
8139;SDS011;4111;50.972;7.072;2023-04-12T05:50:50;1.70;;;1.50;;
8139;SDS011;4111;50.972;7.072;2023-04-12T05:53:17;3.77;;;1.80;;
8139;SDS011;4111;50.972;7.072;2023-04-12T05:55:44;4.67;;;1.93;;
8139;SDS011;4111;50.972;7.072;2023-04-12T05:58:11;3.07;;;1.70;;
8139;SDS011;4111;50.972;7.072;2023-04-12T06:00:40;2.03;;;1.63;;
8139;SDS011;4111;50.972;7.072;2023-04-12T06:03:07;3.33;;;1.40;;
8139;SDS011;4111;50.972;7.072;2023-04-12T06:05:35;2.73;;;1.70;;
8139;SDS011;4111;50.972;7.072;2023-04-12T06:08:03;2.27;;;1.47;;
8139;SDS011;4111;50.972;7.072;2023-04-12T06:10:30;2.17;;;1.90;;
8139;SDS011;4111;50.972;7.072;2023-04-12T06:12:57;5.53;;;1.83;;
8139;SDS011;4111;50.972;7.072;2023-04-12T06:15:23;1.80;;;1.70;;
8139;SDS011;4111;50.972;7.072;2023-04-12T06:17:49;3.07;;;1.67;;
8139;SDS011;4111;50.972;7.072;2023-04-12T06:20:16;4.27;;;1.70;;
8139;SDS011;4111;50.972;7.072;2023-04-12T06:22:43;2.60;;;1.60;;
8139;SDS011;4111;50.972;7.072;2023-04-12T06:25:09;2.57;;;1.70;;
8139;SDS011;4111;50.972;7.072;2023-04-12T06:27:35;2.57;;;1.57;;
8139;SDS011;4111;50.972;7.072;2023-04-12T06:30:02;1.70;;;1.50;;
8139;SDS011;4111;50.972;7.072;2023-04-12T06:32:29;4.10;;;1.90;;
8139;SDS011;4111;50.972;7.072;2023-04-12T06:34:56;3.53;;;1.80;;
8139;SDS011;4111;50.972;7.072;2023-04-12T06:37:22;1.63;;;1.50;;
8139;SDS011;4111;50.972;7.072;2023-04-12T06:39:49;2.73;;;1.70;;
8139;SDS011;4111;50.972;7.072;2023-04-12T06:42:16;2.73;;;1.60;;
8139;SDS011;4111;50.972;7.072;2023-04-12T06:44:42;5.50;;;1.83;;
8139;SDS011;4111;50.972;7.072;2023-04-12T06:47:09;4.30;;;2.20;;
8139;SDS011;4111;50.972;7.072;2023-04-12T06:49:36;3.30;;;2.00;;
8139;SDS011;4111;50.972;7.072;2023-04-12T06:52:04;3.57;;;1.60;;
8139;SDS011;4111;50.972;7.072;2023-04-12T06:54:30;2.53;;;1.63;;
8139;SDS011;4111;50.972;7.072;2023-04-12T06:56:57;4.83;;;1.63;;
8139;SDS011;4111;50.972;7.072;2023-04-12T06:59:23;2.50;;;1.70;;
8139;SDS011;4111;50.972;7.072;2023-04-12T07:01:50;3.23;;;1.53;;
8139;SDS011;4111;50.972;7.072;2023-04-12T07:04:16;1.63;;;1.50;;
8139;SDS011;4111;50.972;7.072;2023-04-12T07:06:43;3.47;;;1.80;;
8139;SDS011;4111;50.972;7.072;2023-04-12T07:09:09;1.77;;;1.40;;
8139;SDS011;4111;50.972;7.072;2023-04-12T07:11:36;3.60;;;1.53;;
8139;SDS011;4111;50.972;7.072;2023-04-12T07:14:03;2.50;;;1.20;;
8139;SDS011;4111;50.972;7.072;2023-04-12T07:16:29;2.83;;;1.90;;
8139;SDS011;4111;50.972;7.072;2023-04-12T07:18:59;2.37;;;1.47;;
8139;SDS011;4111;50.972;7.072;2023-04-12T07:21:26;1.80;;;1.57;;
8139;SDS011;4111;50.972;7.072;2023-04-12T07:23:52;2.00;;;1.80;;
8139;SDS011;4111;50.972;7.072;2023-04-12T07:26:19;4.90;;;1.70;;
8139;SDS011;4111;50.972;7.072;2023-04-12T07:28:46;4.03;;;1.60;;
8139;SDS011;4111;50.972;7.072;2023-04-12T07:31:13;13.13;;;1.70;;
8139;SDS011;4111;50.972;7.072;2023-04-12T07:33:39;2.93;;;1.53;;
8139;SDS011;4111;50.972;7.072;2023-04-12T07:36:08;3.07;;;1.27;;
8139;SDS011;4111;50.972;7.072;2023-04-12T07:38:36;1.60;;;1.10;;
8139;SDS011;4111;50.972;7.072;2023-04-12T07:41:02;2.70;;;1.30;;
8139;SDS011;4111;50.972;7.072;2023-04-12T07:43:29;1.20;;;1.10;;
8139;SDS011;4111;50.972;7.072;2023-04-12T07:45:55;1.77;;;1.17;;
8139;SDS011;4111;50.972;7.072;2023-04-12T07:48:22;2.10;;;1.10;;
8139;SDS011;4111;50.972;7.072;2023-04-12T07:50:48;1.60;;;1.50;;
8139;SDS011;4111;50.972;7.072;2023-04-12T07:53:16;3.10;;;1.30;;
8139;SDS011;4111;50.972;7.072;2023-04-12T07:55:44;2.50;;;1.40;;
8139;SDS011;4111;50.972;7.072;2023-04-12T07:58:12;1.40;;;1.30;;
8139;SDS011;4111;50.972;7.072;2023-04-12T08:00:39;1.67;;;1.23;;
8139;SDS011;4111;50.972;7.072;2023-04-12T08:03:06;1.63;;;1.53;;
8139;SDS011;4111;50.972;7.072;2023-04-12T08:05:33;1.40;;;1.30;;
8139;SDS011;4111;50.972;7.072;2023-04-12T08:07:59;1.90;;;1.80;;
8139;SDS011;4111;50.972;7.072;2023-04-12T08:10:26;2.17;;;1.60;;
8139;SDS011;4111;50.972;7.072;2023-04-12T08:12:52;1.50;;;1.40;;
8139;SDS011;4111;50.972;7.072;2023-04-12T08:15:19;4.10;;;1.33;;
8139;SDS011;4111;50.972;7.072;2023-04-12T08:17:46;2.43;;;1.23;;
8139;SDS011;4111;50.972;7.072;2023-04-12T08:20:13;1.60;;;1.30;;
8139;SDS011;4111;50.972;7.072;2023-04-12T08:22:43;2.00;;;1.10;;
8139;SDS011;4111;50.972;7.072;2023-04-12T08:25:11;2.10;;;1.23;;
8139;SDS011;4111;50.972;7.072;2023-04-12T08:27:41;2.47;;;1.20;;
8139;SDS011;4111;50.972;7.072;2023-04-12T08:30:08;1.50;;;1.20;;
8139;SDS011;4111;50.972;7.072;2023-04-12T08:32:36;1.80;;;1.20;;
8139;SDS011;4111;50.972;7.072;2023-04-12T08:35:03;1.20;;;1.10;;
8139;SDS011;4111;50.972;7.072;2023-04-12T08:37:30;1.30;;;1.20;;
8139;SDS011;4111;50.972;7.072;2023-04-12T08:39:58;1.57;;;1.10;;
8139;SDS011;4111;50.972;7.072;2023-04-12T08:42:26;1.10;;;1.00;;
8139;SDS011;4111;50.972;7.072;2023-04-12T08:44:52;1.37;;;1.10;;
8139;SDS011;4111;50.972;7.072;2023-04-12T08:47:19;1.17;;;1.07;;
8139;SDS011;4111;50.972;7.072;2023-04-12T08:49:46;0.90;;;0.90;;
8139;SDS011;4111;50.972;7.072;2023-04-12T08:52:12;1.63;;;1.03;;
8139;SDS011;4111;50.972;7.072;2023-04-12T08:54:39;1.13;;;0.93;;
8139;SDS011;4111;50.972;7.072;2023-04-12T08:57:06;0.90;;;0.90;;
8139;SDS011;4111;50.972;7.072;2023-04-12T08:59:35;2.20;;;1.00;;
8139;SDS011;4111;50.972;7.072;2023-04-12T09:02:04;0.97;;;0.90;;
8139;SDS011;4111;50.972;7.072;2023-04-12T09:04:31;0.80;;;0.80;;
8139;SDS011;4111;50.972;7.072;2023-04-12T09:06:57;1.00;;;1.00;;
8139;SDS011;4111;50.972;7.072;2023-04-12T09:09:46;1.20;;;1.10;;
8139;SDS011;4111;50.972;7.072;2023-04-12T09:12:13;1.33;;;1.07;;
8139;SDS011;4111;50.972;7.072;2023-04-12T09:14:40;0.90;;;0.83;;
8139;SDS011;4111;50.972;7.072;2023-04-12T09:17:20;2.03;;;0.90;;
8139;SDS011;4111;50.972;7.072;2023-04-12T09:19:48;1.00;;;1.00;;
8139;SDS011;4111;50.972;7.072;2023-04-12T09:22:14;1.00;;;0.90;;
8139;SDS011;4111;50.972;7.072;2023-04-12T09:24:45;1.70;;;0.97;;
8139;SDS011;4111;50.972;7.072;2023-04-12T09:27:16;1.60;;;0.80;;
8139;SDS011;4111;50.972;7.072;2023-04-12T09:29:46;1.23;;;1.00;;
8139;SDS011;4111;50.972;7.072;2023-04-12T09:32:26;1.40;;;1.20;;
8139;SDS011;4111;50.972;7.072;2023-04-12T09:34:56;2.03;;;0.80;;
8139;SDS011;4111;50.972;7.072;2023-04-12T09:37:24;2.47;;;1.07;;
8139;SDS011;4111;50.972;7.072;2023-04-12T09:40:00;1.27;;;1.13;;
8139;SDS011;4111;50.972;7.072;2023-04-12T09:42:50;0.80;;;0.80;;
8139;SDS011;4111;50.972;7.072;2023-04-12T09:45:22;1.97;;;1.17;;
8139;SDS011;4111;50.972;7.072;2023-04-12T09:47:51;1.50;;;1.10;;
8139;SDS011;4111;50.972;7.072;2023-04-12T09:50:28;1.70;;;1.20;;
8139;SDS011;4111;50.972;7.072;2023-04-12T09:52:58;1.40;;;1.30;;
8139;SDS011;4111;50.972;7.072;2023-04-12T09:55:27;1.17;;;0.80;;
8139;SDS011;4111;50.972;7.072;2023-04-12T09:57:55;1.23;;;1.17;;
8139;SDS011;4111;50.972;7.072;2023-04-12T10:00:22;0.80;;;0.80;;
8139;SDS011;4111;50.972;7.072;2023-04-12T10:02:52;3.57;;;1.20;;
8139;SDS011;4111;50.972;7.072;2023-04-12T10:05:22;2.67;;;1.40;;
8139;SDS011;4111;50.972;7.072;2023-04-12T10:07:52;2.03;;;1.30;;
8139;SDS011;4111;50.972;7.072;2023-04-12T10:10:21;1.27;;;1.00;;
8139;SDS011;4111;50.972;7.072;2023-04-12T10:12:48;4.63;;;1.30;;
8139;SDS011;4111;50.972;7.072;2023-04-12T10:15:15;2.23;;;1.33;;
8139;SDS011;4111;50.972;7.072;2023-04-12T10:17:45;1.00;;;1.00;;
8139;SDS011;4111;50.972;7.072;2023-04-12T10:20:17;1.53;;;1.20;;
8139;SDS011;4111;50.972;7.072;2023-04-12T10:22:45;1.03;;;1.03;;
8139;SDS011;4111;50.972;7.072;2023-04-12T10:25:14;1.40;;;1.30;;
8139;SDS011;4111;50.972;7.072;2023-04-12T10:27:44;1.53;;;1.00;;
8139;SDS011;4111;50.972;7.072;2023-04-12T10:30:18;1.87;;;1.03;;
8139;SDS011;4111;50.972;7.072;2023-04-12T10:35:13;1.07;;;1.07;;
8139;SDS011;4111;50.972;7.072;2023-04-12T10:37:58;1.87;;;1.30;;
8139;SDS011;4111;50.972;7.072;2023-04-12T10:40:27;1.90;;;1.00;;
8139;SDS011;4111;50.972;7.072;2023-04-12T10:43:28;0.97;;;0.97;;
8139;SDS011;4111;50.972;7.072;2023-04-12T10:45:48;1.57;;;1.30;;
8139;SDS011;4111;50.972;7.072;2023-04-12T10:48:30;1.83;;;1.47;;
8139;SDS011;4111;50.972;7.072;2023-04-12T10:51:11;2.07;;;1.33;;
8139;SDS011;4111;50.972;7.072;2023-04-12T10:53:52;1.50;;;1.40;;
8139;SDS011;4111;50.972;7.072;2023-04-12T10:56:40;1.20;;;1.10;;
8139;SDS011;4111;50.972;7.072;2023-04-12T10:59:08;1.43;;;1.07;;
8139;SDS011;4111;50.972;7.072;2023-04-12T11:01:36;1.63;;;1.53;;
8139;SDS011;4111;50.972;7.072;2023-04-12T11:04:08;1.50;;;1.20;;
8139;SDS011;4111;50.972;7.072;2023-04-12T11:09:25;2.23;;;1.17;;
8139;SDS011;4111;50.972;7.072;2023-04-12T11:11:56;1.27;;;1.17;;
8139;SDS011;4111;50.972;7.072;2023-04-12T11:14:46;2.30;;;1.70;;
8139;SDS011;4111;50.972;7.072;2023-04-12T11:19:48;1.43;;;1.10;;
8139;SDS011;4111;50.972;7.072;2023-04-12T11:22:20;3.17;;;1.13;;
8139;SDS011;4111;50.972;7.072;2023-04-12T11:24:49;1.27;;;1.23;;
8139;SDS011;4111;50.972;7.072;2023-04-12T11:27:18;1.37;;;1.27;;
8139;SDS011;4111;50.972;7.072;2023-04-12T11:29:49;1.50;;;1.40;;
8139;SDS011;4111;50.972;7.072;2023-04-12T11:32:25;1.23;;;1.13;;
8139;SDS011;4111;50.972;7.072;2023-04-12T11:34:54;5.17;;;1.60;;
8139;SDS011;4111;50.972;7.072;2023-04-12T11:37:22;3.03;;;1.80;;
8139;SDS011;4111;50.972;7.072;2023-04-12T11:39:50;2.20;;;2.00;;
8139;SDS011;4111;50.972;7.072;2023-04-12T11:42:18;1.90;;;1.70;;
8139;SDS011;4111;50.972;7.072;2023-04-12T11:44:47;4.00;;;1.63;;
8139;SDS011;4111;50.972;7.072;2023-04-12T11:47:24;1.87;;;1.77;;
8139;SDS011;4111;50.972;7.072;2023-04-12T11:49:55;2.30;;;1.90;;
8139;SDS011;4111;50.972;7.072;2023-04-12T11:52:26;4.83;;;2.30;;
8139;SDS011;4111;50.972;7.072;2023-04-12T11:54:58;2.97;;;2.27;;
8139;SDS011;4111;50.972;7.072;2023-04-12T11:57:26;3.67;;;2.43;;
8139;SDS011;4111;50.972;7.072;2023-04-12T11:59:55;2.77;;;2.07;;
8139;SDS011;4111;50.972;7.072;2023-04-12T12:02:22;3.60;;;2.20;;
8139;SDS011;4111;50.972;7.072;2023-04-12T12:04:51;2.43;;;2.00;;
8139;SDS011;4111;50.972;7.072;2023-04-12T12:07:18;3.93;;;2.43;;
8139;SDS011;4111;50.972;7.072;2023-04-12T12:09:47;6.33;;;2.67;;
8139;SDS011;4111;50.972;7.072;2023-04-12T12:12:15;3.13;;;2.20;;
8139;SDS011;4111;50.972;7.072;2023-04-12T12:14:42;5.47;;;2.27;;
8139;SDS011;4111;50.972;7.072;2023-04-12T12:17:11;4.90;;;2.33;;
8139;SDS011;4111;50.972;7.072;2023-04-12T12:19:39;5.17;;;2.70;;
8139;SDS011;4111;50.972;7.072;2023-04-12T12:22:18;6.57;;;2.80;;
8139;SDS011;4111;50.972;7.072;2023-04-12T12:27:16;3.00;;;1.80;;
8139;SDS011;4111;50.972;7.072;2023-04-12T12:30:05;6.20;;;1.80;;
8139;SDS011;4111;50.972;7.072;2023-04-12T12:32:33;3.37;;;1.60;;
8139;SDS011;4111;50.972;7.072;2023-04-12T12:35:01;2.57;;;1.60;;
8139;SDS011;4111;50.972;7.072;2023-04-12T12:37:28;2.03;;;1.40;;
8139;SDS011;4111;50.972;7.072;2023-04-12T12:40:05;3.03;;;1.30;;
8139;SDS011;4111;50.972;7.072;2023-04-12T12:42:35;3.30;;;1.67;;
8139;SDS011;4111;50.972;7.072;2023-04-12T12:45:02;3.13;;;1.60;;
8139;SDS011;4111;50.972;7.072;2023-04-12T12:47:29;2.53;;;1.83;;
8139;SDS011;4111;50.972;7.072;2023-04-12T12:49:57;4.90;;;1.60;;
8139;SDS011;4111;50.972;7.072;2023-04-12T12:52:24;2.97;;;1.40;;
8139;SDS011;4111;50.972;7.072;2023-04-12T12:54:50;2.23;;;1.20;;
8139;SDS011;4111;50.972;7.072;2023-04-12T12:57:16;3.53;;;1.30;;
8139;SDS011;4111;50.972;7.072;2023-04-12T12:59:43;3.03;;;1.60;;
8139;SDS011;4111;50.972;7.072;2023-04-12T13:02:09;3.40;;;1.60;;
8139;SDS011;4111;50.972;7.072;2023-04-12T13:04:36;3.90;;;1.57;;
8139;SDS011;4111;50.972;7.072;2023-04-12T13:07:03;3.77;;;1.60;;
8139;SDS011;4111;50.972;7.072;2023-04-12T13:09:30;3.77;;;1.50;;
8139;SDS011;4111;50.972;7.072;2023-04-12T13:11:56;4.30;;;1.60;;
8139;SDS011;4111;50.972;7.072;2023-04-12T13:14:23;2.03;;;1.30;;
8139;SDS011;4111;50.972;7.072;2023-04-12T13:16:49;3.70;;;1.60;;
8139;SDS011;4111;50.972;7.072;2023-04-12T13:19:16;4.10;;;1.47;;
8139;SDS011;4111;50.972;7.072;2023-04-12T13:21:42;4.13;;;1.63;;
8139;SDS011;4111;50.972;7.072;2023-04-12T13:24:09;5.13;;;2.00;;
8139;SDS011;4111;50.972;7.072;2023-04-12T13:26:36;4.77;;;1.90;;
8139;SDS011;4111;50.972;7.072;2023-04-12T13:29:02;2.67;;;1.37;;
8139;SDS011;4111;50.972;7.072;2023-04-12T13:31:29;3.63;;;1.80;;
8139;SDS011;4111;50.972;7.072;2023-04-12T13:33:55;2.67;;;1.67;;
8139;SDS011;4111;50.972;7.072;2023-04-12T13:36:22;4.13;;;1.70;;
8139;SDS011;4111;50.972;7.072;2023-04-12T13:38:48;7.13;;;2.57;;
8139;SDS011;4111;50.972;7.072;2023-04-12T13:41:16;5.00;;;2.15;;
8139;SDS011;4111;50.972;7.072;2023-04-12T13:43:44;9.47;;;2.33;;
8139;SDS011;4111;50.972;7.072;2023-04-12T13:46:10;3.87;;;1.50;;
8139;SDS011;4111;50.972;7.072;2023-04-12T13:48:38;5.90;;;2.10;;
8139;SDS011;4111;50.972;7.072;2023-04-12T13:51:05;8.87;;;2.03;;
8139;SDS011;4111;50.972;7.072;2023-04-12T13:53:31;4.87;;;1.67;;
8139;SDS011;4111;50.972;7.072;2023-04-12T13:55:58;5.10;;;2.03;;
8139;SDS011;4111;50.972;7.072;2023-04-12T13:58:24;5.27;;;2.40;;
8139;SDS011;4111;50.972;7.072;2023-04-12T14:00:51;6.70;;;2.07;;
8139;SDS011;4111;50.972;7.072;2023-04-12T14:03:19;4.43;;;1.67;;
8139;SDS011;4111;50.972;7.072;2023-04-12T14:05:46;8.07;;;2.50;;
8139;SDS011;4111;50.972;7.072;2023-04-12T14:08:12;5.80;;;2.20;;
8139;SDS011;4111;50.972;7.072;2023-04-12T14:10:39;4.37;;;2.10;;
8139;SDS011;4111;50.972;7.072;2023-04-12T14:13:06;7.77;;;2.47;;
8139;SDS011;4111;50.972;7.072;2023-04-12T14:15:32;4.20;;;2.10;;
8139;SDS011;4111;50.972;7.072;2023-04-12T14:17:58;6.93;;;2.20;;
8139;SDS011;4111;50.972;7.072;2023-04-12T14:20:25;4.57;;;2.17;;
8139;SDS011;4111;50.972;7.072;2023-04-12T14:22:52;4.43;;;2.07;;
8139;SDS011;4111;50.972;7.072;2023-04-12T14:25:18;7.87;;;2.80;;
8139;SDS011;4111;50.972;7.072;2023-04-12T14:27:45;7.20;;;2.43;;
8139;SDS011;4111;50.972;7.072;2023-04-12T14:30:11;6.53;;;2.50;;
8139;SDS011;4111;50.972;7.072;2023-04-12T14:32:38;7.07;;;2.10;;
8139;SDS011;4111;50.972;7.072;2023-04-12T14:35:04;4.27;;;1.83;;
8139;SDS011;4111;50.972;7.072;2023-04-12T14:37:31;8.10;;;2.27;;
8139;SDS011;4111;50.972;7.072;2023-04-12T14:39:58;6.30;;;2.10;;
8139;SDS011;4111;50.972;7.072;2023-04-12T14:42:24;8.40;;;2.73;;
8139;SDS011;4111;50.972;7.072;2023-04-12T14:44:51;8.83;;;2.70;;
8139;SDS011;4111;50.972;7.072;2023-04-12T14:47:17;6.00;;;2.23;;
8139;SDS011;4111;50.972;7.072;2023-04-12T14:49:44;5.67;;;2.83;;
8139;SDS011;4111;50.972;7.072;2023-04-12T14:52:10;5.40;;;2.30;;
8139;SDS011;4111;50.972;7.072;2023-04-12T14:54:37;8.27;;;2.67;;
8139;SDS011;4111;50.972;7.072;2023-04-12T14:57:03;8.03;;;2.50;;
8139;SDS011;4111;50.972;7.072;2023-04-12T14:59:30;7.60;;;2.80;;
8139;SDS011;4111;50.972;7.072;2023-04-12T15:01:57;5.20;;;2.47;;
8139;SDS011;4111;50.972;7.072;2023-04-12T15:04:24;10.00;;;2.63;;
8139;SDS011;4111;50.972;7.072;2023-04-12T15:06:51;5.47;;;2.30;;
8139;SDS011;4111;50.972;7.072;2023-04-12T15:09:17;5.20;;;2.53;;
8139;SDS011;4111;50.972;7.072;2023-04-12T15:11:44;4.77;;;1.93;;
8139;SDS011;4111;50.972;7.072;2023-04-12T15:14:15;5.07;;;2.07;;
8139;SDS011;4111;50.972;7.072;2023-04-12T15:16:46;7.10;;;2.57;;
8139;SDS011;4111;50.972;7.072;2023-04-12T15:19:14;5.67;;;2.60;;
8139;SDS011;4111;50.972;7.072;2023-04-12T15:21:47;6.87;;;2.37;;
8139;SDS011;4111;50.972;7.072;2023-04-12T15:24:17;7.30;;;2.37;;
8139;SDS011;4111;50.972;7.072;2023-04-12T15:26:43;6.33;;;2.07;;
8139;SDS011;4111;50.972;7.072;2023-04-12T15:29:13;4.60;;;2.13;;
8139;SDS011;4111;50.972;7.072;2023-04-12T15:31:41;4.77;;;2.00;;
8139;SDS011;4111;50.972;7.072;2023-04-12T15:34:09;4.90;;;1.90;;
8139;SDS011;4111;50.972;7.072;2023-04-12T15:36:35;5.30;;;1.93;;
8139;SDS011;4111;50.972;7.072;2023-04-12T15:39:02;5.80;;;2.03;;
8139;SDS011;4111;50.972;7.072;2023-04-12T15:41:32;7.83;;;1.70;;